createdAt,value
2018-09-14T00:03:02.334Z,11.83
2018-09-14T00:05:45.079Z,8.80
2018-09-14T00:08:14.002Z,18.13
2018-09-14T01:02:36.521Z,13.13
2018-09-14T01:05:13.213Z,11.90
2018-09-14T01:07:42.092Z,13.27
2018-09-14T02:02:36.525Z,11.73
2018-09-14T02:05:05.725Z,13.67
2018-09-14T02:07:34.425Z,13.33
2018-09-14T02:10:03.437Z,13.47
2018-09-14T03:02:40.609Z,24.23
2018-09-14T03:05:09.318Z,20.97
2018-09-14T03:07:37.980Z,22.17
2018-09-14T03:10:07.845Z,17.43
2018-09-14T04:02:39.353Z,18.17
2018-09-14T04:05:08.048Z,14.07
2018-09-14T04:07:36.770Z,16.50
2018-09-14T04:10:05.777Z,17.43
2018-09-14T05:02:36.521Z,16.73
2018-09-14T05:05:05.318Z,14.83
2018-09-14T05:07:34.120Z,18.63
2018-09-14T05:10:03.013Z,15.73
2018-09-14T06:02:57.353Z,9.67
2018-09-14T06:05:26.153Z,12.93
2018-09-14T06:07:54.835Z,12.23
2018-09-14T07:02:36.814Z,6.90
2018-09-14T07:05:05.493Z,6.80
2018-09-14T07:07:34.256Z,7.10
2018-09-14T07:10:03.167Z,8.67
2018-09-14T08:02:40.184Z,7.87
2018-09-14T08:05:08.897Z,7.13
2018-09-14T08:07:37.639Z,7.73
2018-09-14T08:10:08.425Z,8.10
2018-09-14T09:02:44.185Z,6.03
2018-09-14T09:05:12.914Z,6.57
2018-09-14T09:07:41.651Z,6.93
2018-09-14T09:10:11.614Z,5.37
2018-09-14T10:02:53.589Z,8.60
2018-09-14T10:05:27.450Z,5.00
2018-09-14T10:07:56.473Z,5.33
2018-09-14T11:02:40.359Z,7.50
2018-09-14T11:05:09.100Z,6.30
2018-09-14T11:07:37.781Z,7.00
2018-09-14T11:10:06.818Z,6.33
2018-09-14T12:02:41.726Z,4.77
2018-09-14T12:05:17.100Z,7.60
2018-09-14T12:07:46.222Z,5.80
2018-09-14T13:02:39.494Z,7.37
2018-09-14T13:05:08.193Z,6.30
2018-09-14T13:07:36.858Z,7.27
2018-09-14T13:10:05.852Z,8.53
2018-09-14T14:02:37.163Z,3.67
2018-09-14T14:05:05.974Z,6.83
2018-09-14T14:07:34.693Z,5.17
2018-09-14T14:10:03.606Z,5.83
2018-09-14T15:02:45.605Z,5.33
2018-09-14T15:05:14.520Z,3.87
2018-09-14T15:07:43.422Z,4.63
2018-09-14T16:02:40.669Z,5.63
2018-09-14T16:05:09.469Z,4.77
2018-09-14T16:07:38.165Z,3.37
2018-09-14T16:10:07.065Z,4.87
2018-09-14T17:02:37.029Z,6.03
2018-09-14T17:05:05.885Z,4.77
2018-09-14T17:07:34.567Z,5.73
2018-09-14T17:10:03.433Z,7.37
2018-09-14T18:02:40.678Z,5.87
2018-09-14T18:05:09.523Z,8.53
2018-09-14T18:07:38.236Z,8.07
2018-09-14T19:02:37.142Z,8.20
2018-09-14T19:05:05.845Z,8.07
2018-09-14T19:07:34.625Z,9.33
2018-09-14T19:10:03.505Z,8.77
2018-09-14T20:02:36.720Z,7.93
2018-09-14T20:05:05.448Z,7.20
2018-09-14T20:07:34.124Z,6.63
2018-09-14T20:10:03.026Z,8.57
2018-09-14T21:02:37.206Z,9.20
2018-09-14T21:05:05.947Z,16.30
2018-09-14T21:07:34.672Z,14.17
2018-09-14T21:10:03.580Z,13.13
2018-09-14T22:02:44.237Z,13.33
2018-09-14T22:05:13.097Z,12.83
2018-09-14T22:07:45.204Z,14.40
2018-09-14T23:02:53.505Z,11.40
2018-09-14T23:05:22.213Z,13.23
2018-09-14T23:07:50.946Z,13.17
